createdAt,value
2023-01-29T00:00:10.082Z,101555.63
2023-01-29T00:02:39.466Z,101560.00
2023-01-29T00:05:25.407Z,101560.19
2023-01-29T00:07:53.656Z,101553.69
2023-01-29T00:10:20.375Z,101553.80
2023-01-29T00:12:46.970Z,101551.23
2023-01-29T00:15:13.609Z,101554.69
2023-01-29T00:17:40.267Z,101552.39
2023-01-29T00:20:07.183Z,101553.64
2023-01-29T00:22:33.836Z,101552.82
2023-01-29T00:25:00.648Z,101556.34
2023-01-29T00:27:27.305Z,101554.50
2023-01-29T00:30:12.039Z,101555.46
2023-01-29T00:32:39.955Z,101553.10
2023-01-29T00:35:08.038Z,101555.83
2023-01-29T00:37:35.040Z,101550.40
2023-01-29T00:40:01.635Z,101557.14
2023-01-29T00:42:47.010Z,101556.88
2023-01-29T00:45:14.168Z,101559.73
2023-01-29T00:47:40.834Z,101559.73
2023-01-29T00:50:10.379Z,101559.18
2023-01-29T00:52:38.628Z,101561.41
2023-01-29T00:55:06.052Z,101560.30
2023-01-29T00:57:35.215Z,101555.94
2023-01-29T01:00:03.619Z,101561.91
2023-01-29T01:02:48.946Z,101564.96
2023-01-29T01:05:19.745Z,101572.15
2023-01-29T01:07:52.433Z,101572.97
2023-01-29T01:10:27.411Z,101573.99
2023-01-29T01:13:00.210Z,101578.40
2023-01-29T01:15:38.465Z,101573.90
2023-01-29T01:18:05.287Z,101570.30
2023-01-29T01:20:35.989Z,101572.24
2023-01-29T01:23:03.613Z,101573.48
2023-01-29T01:25:30.293Z,101573.02
2023-01-29T01:30:25.911Z,101574.30
2023-01-29T01:32:52.986Z,101577.70
2023-01-29T01:35:19.742Z,101577.28
2023-01-29T01:37:46.460Z,101577.37
2023-01-29T01:40:19.651Z,101579.02
2023-01-29T01:42:55.461Z,101581.04
2023-01-29T01:45:34.467Z,101578.84
2023-01-29T01:48:11.442Z,101587.95
2023-01-29T01:51:03.547Z,101583.31
2023-01-29T01:53:38.556Z,101578.14
2023-01-29T01:56:10.411Z,101575.20
2023-01-29T01:58:42.560Z,101575.19
2023-01-29T02:01:10.236Z,101571.60
2023-01-29T02:04:12.428Z,101571.71
2023-01-29T02:06:59.400Z,101567.21
2023-01-29T02:09:38.809Z,101568.73
2023-01-29T02:12:08.720Z,101572.45
2023-01-29T02:14:40.926Z,101576.13
2023-01-29T02:17:14.262Z,101578.19
2023-01-29T02:20:12.157Z,101579.89
2023-01-29T02:22:55.383Z,101581.30
2023-01-29T02:25:39.473Z,101587.13
2023-01-29T02:28:24.230Z,101588.65
2023-01-29T02:31:00.926Z,101585.40
2023-01-29T02:33:35.784Z,101590.18
2023-01-29T02:36:27.426Z,101592.92
2023-01-29T02:39:33.094Z,101594.65
2023-01-29T02:42:14.961Z,101595.90
2023-01-29T02:45:01.025Z,101593.10
2023-01-29T02:47:35.085Z,101591.67
2023-01-29T02:50:18.301Z,101594.05
2023-01-29T02:53:02.007Z,101595.58
2023-01-29T02:55:51.208Z,101590.67
2023-01-29T02:58:54.766Z,101587.35
2023-01-29T03:01:30.950Z,101583.20
2023-01-29T03:04:21.434Z,101582.37
2023-01-29T03:07:03.140Z,101581.06
2023-01-29T03:09:51.475Z,101580.63
2023-01-29T03:12:34.347Z,101580.72
2023-01-29T03:15:16.662Z,101578.94
2023-01-29T03:17:58.891Z,101585.39
2023-01-29T03:20:33.355Z,101586.70
2023-01-29T03:23:13.682Z,101590.59
2023-01-29T03:26:02.101Z,101594.41
2023-01-29T03:28:49.365Z,101594.35
2023-01-29T03:31:37.564Z,101598.64
2023-01-29T03:34:16.589Z,101601.86
2023-01-29T03:36:58.116Z,101598.59
2023-01-29T03:39:30.314Z,101598.45
2023-01-29T03:42:05.392Z,101598.64
2023-01-29T03:44:43.610Z,101602.55
2023-01-29T03:47:21.193Z,101607.70
2023-01-29T03:50:06.798Z,101609.72
2023-01-29T03:52:45.490Z,101607.88
2023-01-29T03:55:23.127Z,101607.79
2023-01-29T03:58:20.420Z,101609.80
2023-01-29T04:01:01.956Z,101610.45
2023-01-29T04:03:42.172Z,101612.73
2023-01-29T04:06:16.771Z,101614.29
2023-01-29T04:09:25.287Z,101613.39
2023-01-29T04:12:09.294Z,101611.61
2023-01-29T04:14:38.459Z,101609.06
2023-01-29T04:17:13.043Z,101609.30
2023-01-29T04:20:06.684Z,101608.98
2023-01-29T04:22:39.243Z,101610.40
2023-01-29T04:25:16.048Z,101608.17
2023-01-29T04:27:58.087Z,101605.81
2023-01-29T04:30:54.599Z,101602.05
2023-01-29T04:33:45.208Z,101599.31
2023-01-29T04:36:33.378Z,101597.30
2023-01-29T04:39:39.465Z,101598.31
2023-01-29T04:42:44.880Z,101596.23
2023-01-29T04:46:08.282Z,101594.65
2023-01-29T04:48:58.078Z,101598.94
2023-01-29T04:51:43.407Z,101601.67
2023-01-29T04:54:20.671Z,101604.55
2023-01-29T04:57:01.794Z,101606.05
2023-01-29T04:59:43.187Z,101611.95
2023-01-29T05:02:11.922Z,101612.19
2023-01-29T05:04:40.972Z,101611.06
2023-01-29T05:07:12.586Z,101612.99
2023-01-29T05:09:39.792Z,101616.90
2023-01-29T05:12:09.944Z,101617.96
2023-01-29T05:14:38.920Z,101617.43
2023-01-29T05:17:11.946Z,101611.91
2023-01-29T05:19:38.676Z,101611.88
2023-01-29T05:22:07.327Z,101609.11
2023-01-29T05:24:37.235Z,101618.52
2023-01-29T05:27:23.110Z,101618.75
2023-01-29T05:29:49.698Z,101620.85
2023-01-29T05:32:16.608Z,101620.73
2023-01-29T05:34:43.320Z,101620.08
2023-01-29T05:37:11.095Z,101622.04
2023-01-29T05:39:37.697Z,101620.46
2023-01-29T05:42:04.502Z,101620.29
2023-01-29T05:44:31.095Z,101620.24
2023-01-29T05:46:57.736Z,101622.98
2023-01-29T05:49:24.376Z,101626.65
2023-01-29T05:51:51.044Z,101627.19
2023-01-29T05:54:17.644Z,101628.95
2023-01-29T05:56:44.248Z,101628.84
2023-01-29T05:59:10.878Z,101630.35
2023-01-29T06:01:37.729Z,101632.25
2023-01-29T06:04:04.467Z,101632.56
2023-01-29T06:06:31.152Z,101637.34
2023-01-29T06:08:57.900Z,101636.41
2023-01-29T06:11:24.766Z,101640.87
2023-01-29T06:13:51.441Z,101645.82
2023-01-29T06:16:18.369Z,101644.38
2023-01-29T06:18:45.048Z,101644.67
2023-01-29T06:21:13.716Z,101648.30
2023-01-29T06:23:41.451Z,101651.75
2023-01-29T06:26:11.544Z,101655.23
2023-01-29T06:28:38.842Z,101659.20
2023-01-29T06:33:53.483Z,101661.95
2023-01-29T06:36:20.162Z,101663.84
2023-01-29T06:38:47.345Z,101666.25
2023-01-29T06:41:17.741Z,101671.30
2023-01-29T06:43:45.267Z,101676.45
2023-01-29T06:46:12.133Z,101678.38
2023-01-29T06:48:38.769Z,101683.04
2023-01-29T06:51:08.213Z,101682.11
2023-01-29T06:53:38.435Z,101686.02
2023-01-29T06:56:06.253Z,101686.89
2023-01-29T06:58:33.403Z,101691.38
2023-01-29T07:01:08.591Z,101691.85
2023-01-29T07:03:35.365Z,101693.85
2023-01-29T07:06:02.346Z,101690.23
2023-01-29T07:08:29.035Z,101694.50
2023-01-29T07:11:03.102Z,101694.35
2023-01-29T07:13:30.067Z,101702.05
2023-01-29T07:16:05.408Z,101700.52
2023-01-29T07:18:32.938Z,101705.34
2023-01-29T07:20:59.738Z,101708.09
2023-01-29T07:23:26.507Z,101717.52
2023-01-29T07:25:53.187Z,101721.67
2023-01-29T07:28:20.718Z,101730.11
2023-01-29T07:30:47.630Z,101730.20
2023-01-29T07:33:14.320Z,101732.52
2023-01-29T07:35:43.273Z,101733.98
2023-01-29T07:38:12.004Z,101732.92
2023-01-29T07:40:38.666Z,101735.73
2023-01-29T07:43:07.446Z,101739.08
2023-01-29T07:45:36.523Z,101747.83
2023-01-29T07:48:05.245Z,101748.23
2023-01-29T07:50:33.357Z,101754.55
2023-01-29T07:53:00.390Z,101759.45
2023-01-29T07:55:27.526Z,101758.32
2023-01-29T07:57:58.639Z,101763.77
2023-01-29T08:00:25.372Z,101764.15
2023-01-29T08:02:52.087Z,101764.31
2023-01-29T08:05:19.307Z,101762.95
2023-01-29T08:07:49.340Z,101764.86
2023-01-29T08:10:24.234Z,101765.08
2023-01-29T08:13:01.892Z,101770.82
2023-01-29T08:15:29.474Z,101769.20
2023-01-29T08:20:43.525Z,101775.27
2023-01-29T08:23:15.635Z,101778.55
2023-01-29T08:25:42.738Z,101779.03
2023-01-29T08:28:09.970Z,101782.08
2023-01-29T08:30:36.682Z,101785.63
2023-01-29T08:33:04.146Z,101780.51
2023-01-29T08:35:31.261Z,101780.77
2023-01-29T08:38:00.355Z,101778.73
2023-01-29T08:40:29.506Z,101777.44
2023-01-29T08:43:06.199Z,101779.08
2023-01-29T08:45:36.381Z,101778.17
2023-01-29T08:48:03.485Z,101778.80
2023-01-29T08:50:30.896Z,101775.71
2023-01-29T08:52:59.420Z,101777.80
2023-01-29T08:55:27.066Z,101781.00
2023-01-29T08:57:53.747Z,101778.83
2023-01-29T09:00:20.754Z,101776.71
2023-01-29T09:02:47.477Z,101778.29
2023-01-29T09:05:14.520Z,101780.67
2023-01-29T09:07:41.579Z,101780.80
2023-01-29T09:10:09.074Z,101786.23
2023-01-29T09:12:35.832Z,101783.20
2023-01-29T09:15:02.499Z,101782.13
2023-01-29T09:17:29.103Z,101788.10
2023-01-29T09:19:55.828Z,101790.89
2023-01-29T09:22:22.461Z,101794.80
2023-01-29T09:24:49.101Z,101795.08
2023-01-29T09:27:15.774Z,101796.59
2023-01-29T09:29:42.494Z,101799.93
2023-01-29T09:32:09.201Z,101800.07
2023-01-29T09:34:36.360Z,101794.92
2023-01-29T09:37:02.941Z,101796.73
2023-01-29T09:39:29.722Z,101794.33
2023-01-29T09:42:15.755Z,101798.27
2023-01-29T09:45:39.938Z,101801.36
2023-01-29T09:48:12.173Z,101803.48
2023-01-29T09:50:43.709Z,101800.64
2023-01-29T09:53:35.135Z,101803.71
2023-01-29T09:56:10.742Z,101800.40
2023-01-29T09:58:39.843Z,101800.46
2023-01-29T10:01:16.038Z,101798.05
2023-01-29T10:04:06.360Z,101797.23
2023-01-29T10:07:12.054Z,101799.84
2023-01-29T10:10:08.175Z,101798.36
2023-01-29T10:12:55.715Z,101793.56
2023-01-29T10:15:38.522Z,101783.30
2023-01-29T10:18:20.172Z,101780.67
2023-01-29T10:21:25.337Z,101774.91
2023-01-29T10:24:00.287Z,101773.54
2023-01-29T10:26:28.835Z,101774.45
2023-01-29T10:28:59.598Z,101771.14
2023-01-29T10:31:31.817Z,101765.23
2023-01-29T10:34:05.127Z,101763.11
2023-01-29T10:36:45.092Z,101760.16
2023-01-29T10:39:18.583Z,101756.36
2023-01-29T10:42:20.040Z,101752.36
2023-01-29T10:45:16.207Z,101748.00
2023-01-29T10:48:04.856Z,101741.17
2023-01-29T10:50:49.405Z,101740.77
2023-01-29T10:53:43.215Z,101737.16
2023-01-29T10:56:22.399Z,101733.65
2023-01-29T10:59:01.625Z,101729.44
2023-01-29T11:01:28.296Z,101724.81
2023-01-29T11:04:02.346Z,101712.71
2023-01-29T11:06:34.755Z,101709.73
2023-01-29T11:09:11.955Z,101706.30
2023-01-29T11:11:45.280Z,101702.46
2023-01-29T11:14:44.645Z,101697.30
2023-01-29T11:17:23.611Z,101689.64
2023-01-29T11:19:52.186Z,101682.61
2023-01-29T11:22:21.927Z,101677.18
2023-01-29T11:25:15.564Z,101682.14
2023-01-29T11:27:46.247Z,101673.80
2023-01-29T11:30:39.040Z,101668.41
2023-01-29T11:33:09.209Z,101663.05
2023-01-29T11:35:36.824Z,101656.33
2023-01-29T11:38:16.865Z,101651.48
2023-01-29T11:40:45.176Z,101646.48
2023-01-29T11:43:17.954Z,101643.48
2023-01-29T11:45:45.727Z,101639.65
2023-01-29T11:48:16.775Z,101633.14
2023-01-29T11:50:50.785Z,101625.74
2023-01-29T11:53:39.236Z,101620.70
2023-01-29T11:56:30.551Z,101616.60
2023-01-29T11:58:58.906Z,101607.90
2023-01-29T12:01:43.447Z,101605.94
2023-01-29T12:04:20.892Z,101599.02
2023-01-29T12:06:52.098Z,101600.81
2023-01-29T12:09:27.200Z,101599.46
2023-01-29T12:11:54.411Z,101593.55
2023-01-29T12:14:34.034Z,101590.41
2023-01-29T12:17:12.693Z,101588.52
2023-01-29T12:19:55.540Z,101585.47
2023-01-29T12:22:32.357Z,101586.44
2023-01-29T12:25:55.260Z,101586.02
2023-01-29T12:28:24.911Z,101589.05
2023-01-29T12:31:11.858Z,101581.63
2023-01-29T12:33:52.649Z,101566.33
2023-01-29T12:36:36.322Z,101558.00
2023-01-29T12:39:03.228Z,101556.90
2023-01-29T12:41:44.094Z,101564.43
2023-01-29T12:44:29.564Z,101564.02
2023-01-29T12:47:01.159Z,101563.85
2023-01-29T12:49:32.819Z,101563.67
2023-01-29T12:52:13.610Z,101559.36
2023-01-29T12:54:47.164Z,101551.48
2023-01-29T12:57:42.485Z,101550.33
2023-01-29T13:00:22.640Z,101548.59
2023-01-29T13:03:17.163Z,101546.87
2023-01-29T13:05:59.049Z,101542.88
2023-01-29T13:09:03.366Z,101543.42
2023-01-29T13:11:40.992Z,101544.09
2023-01-29T13:14:40.914Z,101540.08
2023-01-29T13:17:34.225Z,101530.64
2023-01-29T13:20:10.598Z,101522.89
2023-01-29T13:22:40.887Z,101515.56
2023-01-29T13:25:16.175Z,101512.00
2023-01-29T13:27:43.854Z,101509.30
2023-01-29T13:30:25.613Z,101513.48
2023-01-29T13:32:54.979Z,101514.59
2023-01-29T13:35:23.777Z,101518.66
2023-01-29T13:37:53.861Z,101514.71
2023-01-29T13:40:30.366Z,101512.63
2023-01-29T13:43:00.245Z,101511.38
2023-01-29T13:45:54.688Z,101510.13
2023-01-29T13:48:28.968Z,101508.95
2023-01-29T13:50:59.671Z,101508.48
2023-01-29T13:53:40.511Z,101509.54
2023-01-29T13:56:39.587Z,101507.23
2023-01-29T13:59:07.033Z,101504.13
2023-01-29T14:01:49.099Z,101503.29
2023-01-29T14:04:18.623Z,101506.48
2023-01-29T14:06:50.908Z,101505.61
2023-01-29T14:09:33.752Z,101502.14
2023-01-29T14:12:00.716Z,101498.98
2023-01-29T14:14:49.120Z,101498.96
2023-01-29T14:17:18.675Z,101498.15
2023-01-29T14:19:54.787Z,101494.98
2023-01-29T14:22:28.359Z,101494.00
2023-01-29T14:24:59.811Z,101487.81
2023-01-29T14:27:26.913Z,101483.80
2023-01-29T14:30:00.929Z,101480.04
2023-01-29T14:32:28.078Z,101477.73
2023-01-29T14:35:04.161Z,101483.19
2023-01-29T14:37:38.894Z,101485.98
2023-01-29T14:40:11.366Z,101484.56
2023-01-29T14:42:44.322Z,101480.78
2023-01-29T14:45:42.034Z,101484.94
2023-01-29T14:48:11.702Z,101490.33
2023-01-29T14:50:50.367Z,101490.78
2023-01-29T14:53:49.727Z,101490.79
2023-01-29T14:56:54.439Z,101487.99
2023-01-29T14:59:30.028Z,101489.70
2023-01-29T15:02:00.870Z,101488.77
2023-01-29T15:04:41.164Z,101488.79
2023-01-29T15:07:20.033Z,101488.19
2023-01-29T15:09:54.213Z,101494.82
2023-01-29T15:12:36.127Z,101490.51
2023-01-29T15:15:18.536Z,101488.54
2023-01-29T15:17:54.208Z,101482.77
2023-01-29T15:20:34.028Z,101479.55
2023-01-29T15:23:04.785Z,101480.23
2023-01-29T15:25:36.543Z,101483.10
2023-01-29T15:28:08.618Z,101483.02
2023-01-29T15:30:35.569Z,101484.14
2023-01-29T15:33:03.934Z,101483.33
2023-01-29T15:35:36.007Z,101485.98
2023-01-29T15:38:07.162Z,101486.77
2023-01-29T15:40:34.669Z,101491.66
2023-01-29T15:43:01.314Z,101495.47
2023-01-29T15:45:32.783Z,101494.60
2023-01-29T15:48:05.563Z,101498.35
2023-01-29T15:50:37.185Z,101501.27
2023-01-29T15:53:09.333Z,101502.03
2023-01-29T15:55:36.099Z,101499.54
2023-01-29T15:58:02.907Z,101501.55
2023-01-29T16:00:30.419Z,101503.89
2023-01-29T16:02:57.904Z,101506.39
2023-01-29T16:05:28.632Z,101505.64
2023-01-29T16:07:57.244Z,101507.89
2023-01-29T16:10:30.332Z,101508.22
2023-01-29T16:12:57.965Z,101508.85
2023-01-29T16:15:32.445Z,101509.86
2023-01-29T16:18:00.692Z,101509.20
2023-01-29T16:20:33.582Z,101513.31
2023-01-29T16:23:00.740Z,101510.97
2023-01-29T16:25:30.390Z,101510.57
2023-01-29T16:27:58.870Z,101503.48
2023-01-29T16:30:27.909Z,101496.05
2023-01-29T16:33:02.020Z,101495.06
2023-01-29T16:35:28.888Z,101497.48
2023-01-29T16:38:03.263Z,101499.36
2023-01-29T16:40:37.578Z,101494.27
2023-01-29T16:43:42.769Z,101503.36
2023-01-29T16:46:25.273Z,101509.00
2023-01-29T16:48:52.722Z,101511.16
2023-01-29T16:51:31.545Z,101509.30
2023-01-29T16:54:07.257Z,101513.70
2023-01-29T16:56:35.010Z,101513.73
2023-01-29T16:59:04.493Z,101517.74
2023-01-29T17:01:32.370Z,101520.64
2023-01-29T17:04:10.053Z,101519.71
2023-01-29T17:06:37.197Z,101521.10
2023-01-29T17:09:05.250Z,101524.38
2023-01-29T17:11:31.861Z,101524.49
2023-01-29T17:13:59.276Z,101523.27
2023-01-29T17:16:32.071Z,101519.64
2023-01-29T17:18:59.923Z,101519.30
2023-01-29T17:21:28.627Z,101522.94
2023-01-29T17:23:55.334Z,101520.35
2023-01-29T17:26:23.121Z,101521.56
2023-01-29T17:28:51.379Z,101522.20
2023-01-29T17:31:18.575Z,101528.55
2023-01-29T17:33:45.905Z,101527.64
2023-01-29T17:36:15.413Z,101530.70
2023-01-29T17:38:42.468Z,101531.58
2023-01-29T17:41:13.989Z,101539.22
2023-01-29T17:43:40.694Z,101543.41
2023-01-29T17:46:13.736Z,101540.59
2023-01-29T17:48:40.479Z,101542.34
2023-01-29T17:51:13.229Z,101543.29
2023-01-29T17:53:45.815Z,101543.93
2023-01-29T17:56:18.541Z,101541.56
2023-01-29T17:58:45.184Z,101541.26
2023-01-29T18:01:11.846Z,101541.93
2023-01-29T18:03:39.105Z,101541.44
2023-01-29T18:06:10.112Z,101542.11
2023-01-29T18:08:39.315Z,101537.23
2023-01-29T18:11:06.347Z,101533.24
2023-01-29T18:13:35.519Z,101533.51
2023-01-29T18:16:02.524Z,101536.23
2023-01-29T18:18:29.221Z,101535.70
2023-01-29T18:20:55.859Z,101534.33
2023-01-29T18:23:23.039Z,101530.80
2023-01-29T18:25:49.765Z,101528.55
2023-01-29T18:28:17.674Z,101529.49
2023-01-29T18:30:47.821Z,101526.61
2023-01-29T18:33:16.034Z,101521.87
2023-01-29T18:35:48.236Z,101520.74
2023-01-29T18:38:14.830Z,101524.60
2023-01-29T18:40:41.584Z,101521.15
2023-01-29T18:43:08.256Z,101523.42
2023-01-29T18:45:35.560Z,101523.08
2023-01-29T18:48:02.279Z,101522.47
2023-01-29T18:50:28.928Z,101519.04
2023-01-29T18:52:55.701Z,101525.61
2023-01-29T18:55:23.605Z,101525.20
2023-01-29T18:58:33.424Z,101521.48
2023-01-29T19:00:41.353Z,101526.27
2023-01-29T19:03:10.739Z,101523.99
2023-01-29T19:05:37.476Z,101521.48
2023-01-29T19:08:05.421Z,101519.77
2023-01-29T19:10:32.652Z,101520.66
2023-01-29T19:12:59.336Z,101518.31
2023-01-29T19:15:25.931Z,101516.40
2023-01-29T19:17:53.142Z,101515.43
2023-01-29T19:20:20.284Z,101518.51
2023-01-29T19:22:47.322Z,101514.91
2023-01-29T19:25:14.834Z,101516.80
2023-01-29T19:27:41.545Z,101519.77
2023-01-29T19:30:10.280Z,101517.31
2023-01-29T19:32:36.909Z,101517.09
2023-01-29T19:35:03.639Z,101517.90
2023-01-29T19:37:31.097Z,101522.98
2023-01-29T19:39:58.061Z,101520.64
2023-01-29T19:42:24.772Z,101524.29
2023-01-29T19:44:52.399Z,101522.46
2023-01-29T19:47:19.507Z,101525.60
2023-01-29T19:49:46.877Z,101524.19
2023-01-29T19:52:49.698Z,101525.04
2023-01-29T19:55:18.808Z,101523.66
2023-01-29T19:57:46.632Z,101523.21
2023-01-29T20:00:15.644Z,101522.95
2023-01-29T20:02:42.354Z,101524.52
2023-01-29T20:05:12.089Z,101525.13
2023-01-29T20:07:41.217Z,101517.48
2023-01-29T20:10:11.737Z,101519.17
2023-01-29T20:12:38.465Z,101518.69
2023-01-29T20:15:05.522Z,101517.95
2023-01-29T20:17:32.254Z,101514.75
2023-01-29T20:19:58.981Z,101515.09
2023-01-29T20:22:26.850Z,101514.86
2023-01-29T20:24:53.874Z,101512.67
2023-01-29T20:27:20.500Z,101512.03
2023-01-29T20:29:47.162Z,101512.16
2023-01-29T20:32:14.656Z,101507.23
2023-01-29T20:34:41.702Z,101507.20
2023-01-29T20:37:08.401Z,101511.04
2023-01-29T20:39:35.121Z,101509.42
2023-01-29T20:42:01.885Z,101513.91
2023-01-29T20:44:28.628Z,101511.90
2023-01-29T20:46:56.454Z,101514.20
2023-01-29T20:49:23.123Z,101516.11
2023-01-29T20:51:50.105Z,101517.52
2023-01-29T20:54:16.748Z,101513.15
2023-01-29T20:56:44.672Z,101509.64
2023-01-29T20:59:14.071Z,101512.55
2023-01-29T21:01:41.845Z,101517.98
2023-01-29T21:04:08.514Z,101517.79
2023-01-29T21:06:35.175Z,101515.17
2023-01-29T21:09:01.823Z,101514.69
2023-01-29T21:11:28.699Z,101513.66
2023-01-29T21:13:57.873Z,101520.77
2023-01-29T21:16:26.384Z,101517.16
2023-01-29T21:18:57.622Z,101516.35
2023-01-29T21:21:24.647Z,101516.33
2023-01-29T21:23:51.324Z,101512.47
2023-01-29T21:26:19.117Z,101511.13
2023-01-29T21:28:46.184Z,101509.42
2023-01-29T21:31:14.724Z,101510.10
2023-01-29T21:33:41.755Z,101508.15
2023-01-29T21:36:10.121Z,101505.41
2023-01-29T21:38:36.934Z,101508.39
2023-01-29T21:41:07.209Z,101510.84
2023-01-29T21:43:33.869Z,101509.20
2023-01-29T21:46:05.143Z,101510.50
2023-01-29T21:48:32.204Z,101508.06
2023-01-29T21:50:58.798Z,101507.18
2023-01-29T21:53:25.422Z,101509.64
2023-01-29T21:55:52.038Z,101511.21
2023-01-29T21:58:20.824Z,101511.39
2023-01-29T22:00:48.944Z,101507.88
2023-01-29T22:03:15.823Z,101509.52
2023-01-29T22:05:42.634Z,101509.57
2023-01-29T22:08:09.961Z,101512.84
2023-01-29T22:10:37.096Z,101510.93
2023-01-29T22:13:03.842Z,101510.92
2023-01-29T22:15:30.527Z,101510.64
2023-01-29T22:17:57.158Z,101514.71
2023-01-29T22:20:30.150Z,101509.27
2023-01-29T22:22:59.454Z,101508.22
2023-01-29T22:25:26.656Z,101506.98
2023-01-29T22:27:53.405Z,101502.02
2023-01-29T22:30:20.596Z,101497.79
2023-01-29T22:32:47.367Z,101500.52
2023-01-29T22:35:14.119Z,101497.35
2023-01-29T22:37:40.732Z,101496.10
2023-01-29T22:40:07.939Z,101488.73
2023-01-29T22:42:34.554Z,101487.82
2023-01-29T22:45:01.175Z,101482.70
2023-01-29T22:47:27.817Z,101483.43
2023-01-29T22:49:54.401Z,101477.42
2023-01-29T22:52:22.160Z,101478.77
2023-01-29T22:54:48.872Z,101476.77
2023-01-29T22:57:15.702Z,101474.77
2023-01-29T22:59:42.345Z,101473.43
2023-01-29T23:02:09.927Z,101473.36
2023-01-29T23:04:37.017Z,101472.86
2023-01-29T23:07:03.751Z,101469.29
2023-01-29T23:09:30.420Z,101469.05
2023-01-29T23:11:57.068Z,101469.27
2023-01-29T23:14:23.723Z,101470.88
2023-01-29T23:16:50.343Z,101470.89
2023-01-29T23:19:17.218Z,101469.52
2023-01-29T23:21:43.821Z,101468.48
2023-01-29T23:24:10.926Z,101464.70
2023-01-29T23:26:56.219Z,101466.54
2023-01-29T23:29:23.019Z,101468.09
2023-01-29T23:31:49.832Z,101469.22
2023-01-29T23:34:16.662Z,101468.00
2023-01-29T23:36:43.535Z,101464.80
2023-01-29T23:39:10.544Z,101467.92
2023-01-29T23:41:37.215Z,101468.62
2023-01-29T23:44:04.293Z,101464.67
2023-01-29T23:46:31.369Z,101461.74
2023-01-29T23:48:58.269Z,101462.66
2023-01-29T23:51:24.887Z,101462.62
2023-01-29T23:53:51.677Z,101459.48
2023-01-29T23:56:18.597Z,101460.17
2023-01-29T23:58:45.846Z,101456.67
